sensor_id;sensor_type;location;lat;lon;timestamp;pressure;altitude;pressure_sealevel;temperature;humidity
20077;BME280;12348;42.710;23.378;2024-01-10T00:00:27;96210.53;;;-5.03;100.00
20077;BME280;12348;42.710;23.378;2024-01-10T00:02:54;96205.78;;;-5.07;100.00
20077;BME280;12348;42.710;23.378;2024-01-10T00:05:20;96211.69;;;-5.05;100.00
20077;BME280;12348;42.710;23.378;2024-01-10T00:07:47;96212.34;;;-5.03;100.00
20077;BME280;12348;42.710;23.378;2024-01-10T00:10:14;96211.66;;;-4.97;100.00
20077;BME280;12348;42.710;23.378;2024-01-10T00:12:41;96210.53;;;-5.03;100.00
20077;BME280;12348;42.710;23.378;2024-01-10T00:15:11;96207.91;;;-5.03;100.00
20077;BME280;12348;42.710;23.378;2024-01-10T00:17:38;96212.66;;;-4.98;100.00
20077;BME280;12348;42.710;23.378;2024-01-10T00:20:06;96209.06;;;-5.05;100.00
20077;BME280;12348;42.710;23.378;2024-01-10T00:22:33;96218.06;;;-5.08;100.00
20077;BME280;12348;42.710;23.378;2024-01-10T00:25:00;96212.50;;;-5.05;100.00
20077;BME280;12348;42.710;23.378;2024-01-10T00:27:27;96221.19;;;-4.96;100.00
20077;BME280;12348;42.710;23.378;2024-01-10T00:29:53;96219.66;;;-4.74;100.00
20077;BME280;12348;42.710;23.378;2024-01-10T00:32:23;96218.84;;;-4.75;100.00
20077;BME280;12348;42.710;23.378;2024-01-10T00:34:50;96219.34;;;-4.71;100.00
20077;BME280;12348;42.710;23.378;2024-01-10T00:37:17;96224.91;;;-4.74;100.00
20077;BME280;12348;42.710;23.378;2024-01-10T00:39:43;96221.31;;;-4.73;100.00
20077;BME280;12348;42.710;23.378;2024-01-10T00:42:10;96221.31;;;-4.73;100.00
20077;BME280;12348;42.710;23.378;2024-01-10T00:44:37;96222.47;;;-4.76;100.00
20077;BME280;12348;42.710;23.378;2024-01-10T00:47:04;96225.09;;;-4.76;100.00
20077;BME280;12348;42.710;23.378;2024-01-10T00:49:32;96224.44;;;-4.70;100.00
20077;BME280;12348;42.710;23.378;2024-01-10T00:51:59;96219.53;;;-4.73;100.00
20077;BME280;12348;42.710;23.378;2024-01-10T00:54:26;96219.53;;;-4.73;100.00
20077;BME280;12348;42.710;23.378;2024-01-10T00:56:52;96222.91;;;-4.56;100.00
20077;BME280;12348;42.710;23.378;2024-01-10T00:59:19;96211.44;;;-4.55;100.00
20077;BME280;12348;42.710;23.378;2024-01-10T01:01:46;96225.06;;;-4.68;100.00
20077;BME280;12348;42.710;23.378;2024-01-10T01:04:12;96224.78;;;-4.73;100.00
20077;BME280;12348;42.710;23.378;2024-01-10T01:06:41;96226.06;;;-4.69;100.00
20077;BME280;12348;42.710;23.378;2024-01-10T01:09:08;96222.78;;;-4.71;100.00
20077;BME280;12348;42.710;23.378;2024-01-10T01:11:35;96217.41;;;-4.22;100.00
20077;BME280;12348;42.710;23.378;2024-01-10T01:14:01;96210.50;;;-4.23;100.00
20077;BME280;12348;42.710;23.378;2024-01-10T01:16:28;96214.81;;;-4.38;100.00
20077;BME280;12348;42.710;23.378;2024-01-10T01:18:55;96212.75;;;-4.51;100.00
20077;BME280;12348;42.710;23.378;2024-01-10T01:21:21;96212.41;;;-4.56;100.00
20077;BME280;12348;42.710;23.378;2024-01-10T01:23:50;96206.66;;;-4.59;100.00
20077;BME280;12348;42.710;23.378;2024-01-10T01:26:17;96212.59;;;-4.66;100.00
20077;BME280;12348;42.710;23.378;2024-01-10T01:28:44;96214.56;;;-4.68;100.00
20077;BME280;12348;42.710;23.378;2024-01-10T01:31:11;96203.56;;;-4.71;100.00
20077;BME280;12348;42.710;23.378;2024-01-10T01:33:37;96205.41;;;-4.80;100.00
20077;BME280;12348;42.710;23.378;2024-01-10T01:36:05;96209.69;;;-4.87;100.00
20077;BME280;12348;42.710;23.378;2024-01-10T01:38:32;96206.06;;;-4.78;100.00
20077;BME280;12348;42.710;23.378;2024-01-10T01:41:00;96205.41;;;-4.80;100.00
20077;BME280;12348;42.710;23.378;2024-01-10T01:43:28;96210.19;;;-4.83;100.00
20077;BME280;12348;42.710;23.378;2024-01-10T01:45:56;96202.31;;;-4.92;100.00
20077;BME280;12348;42.710;23.378;2024-01-10T01:48:23;96207.09;;;-4.95;100.00
20077;BME280;12348;42.710;23.378;2024-01-10T01:50:56;96203.66;;;-5.04;100.00
20077;BME280;12348;42.710;23.378;2024-01-10T01:53:23;96201.50;;;-5.08;100.00
20077;BME280;12348;42.710;23.378;2024-01-10T01:55:50;96203.50;;;-5.10;100.00
20077;BME280;12348;42.710;23.378;2024-01-10T01:58:19;96200.03;;;-5.11;100.00
20077;BME280;12348;42.710;23.378;2024-01-10T02:00:47;96191.00;;;-5.08;100.00
20077;BME280;12348;42.710;23.378;2024-01-10T02:03:13;96194.94;;;-4.96;100.00
20077;BME280;12348;42.710;23.378;2024-01-10T02:05:40;96184.91;;;-4.84;100.00
20077;BME280;12348;42.710;23.378;2024-01-10T02:08:08;96190.66;;;-4.81;100.00
20077;BME280;12348;42.710;23.378;2024-01-10T02:10:37;96180.38;;;-4.59;100.00
20077;BME280;12348;42.710;23.378;2024-01-10T02:13:04;96181.09;;;-4.66;100.00
20077;BME280;12348;42.710;23.378;2024-01-10T02:15:33;96176.00;;;-4.75;100.00
20077;BME280;12348;42.710;23.378;2024-01-10T02:17:59;96176.69;;;-4.81;100.00
20077;BME280;12348;42.710;23.378;2024-01-10T02:20:26;96180.81;;;-4.87;100.00
20077;BME280;12348;42.710;23.378;2024-01-10T02:22:53;96182.28;;;-4.84;100.00
20077;BME280;12348;42.710;23.378;2024-01-10T02:25:21;96182.78;;;-4.89;100.00
20077;BME280;12348;42.710;23.378;2024-01-10T02:27:48;96184.44;;;-4.96;100.00
20077;BME280;12348;42.710;23.378;2024-01-10T02:30:17;96181.97;;;-4.98;100.00
20077;BME280;12348;42.710;23.378;2024-01-10T02:32:44;96182.44;;;-4.94;100.00
20077;BME280;12348;42.710;23.378;2024-01-10T02:35:11;96175.69;;;-4.80;100.00
20077;BME280;12348;42.710;23.378;2024-01-10T02:37:37;96180.31;;;-4.91;100.00
20077;BME280;12348;42.710;23.378;2024-01-10T02:40:05;96189.00;;;-4.90;100.00
20077;BME280;12348;42.710;23.378;2024-01-10T02:42:34;96181.63;;;-4.95;100.00
20077;BME280;12348;42.710;23.378;2024-01-10T02:45:01;96189.34;;;-5.01;100.00
20077;BME280;12348;42.710;23.378;2024-01-10T02:47:28;96185.59;;;-4.99;100.00
20077;BME280;12348;42.710;23.378;2024-01-10T02:49:55;96186.91;;;-5.03;100.00
20077;BME280;12348;42.710;23.378;2024-01-10T02:52:22;96186.72;;;-5.01;100.00
20077;BME280;12348;42.710;23.378;2024-01-10T02:54:48;96183.13;;;-5.00;100.00
20077;BME280;12348;42.710;23.378;2024-01-10T02:57:15;96188.84;;;-4.97;100.00
20077;BME280;12348;42.710;23.378;2024-01-10T02:59:43;96186.72;;;-4.93;100.00
20077;BME280;12348;42.710;23.378;2024-01-10T03:02:10;96183.75;;;-4.90;100.00
20077;BME280;12348;42.710;23.378;2024-01-10T03:04:37;96184.59;;;-4.98;100.00
20077;BME280;12348;42.710;23.378;2024-01-10T03:07:04;96184.09;;;-4.93;100.00
20077;BME280;12348;42.710;23.378;2024-01-10T03:09:31;96179.16;;;-4.80;100.00
20077;BME280;12348;42.710;23.378;2024-01-10T03:11:58;96183.38;;;-4.71;100.00
20077;BME280;12348;42.710;23.378;2024-01-10T03:14:24;96187.03;;;-4.80;100.00
20077;BME280;12348;42.710;23.378;2024-01-10T03:16:52;96189.34;;;-4.85;100.00
20077;BME280;12348;42.710;23.378;2024-01-10T03:19:19;96188.34;;;-4.84;100.00
20077;BME280;12348;42.710;23.378;2024-01-10T03:21:46;96198.84;;;-4.84;100.00
20077;BME280;12348;42.710;23.378;2024-01-10T03:24:12;96198.84;;;-4.84;100.00
20077;BME280;12348;42.710;23.378;2024-01-10T03:26:39;96195.91;;;-4.81;100.00
20077;BME280;12348;42.710;23.378;2024-01-10T03:29:06;96186.88;;;-4.87;100.00
20077;BME280;12348;42.710;23.378;2024-01-10T03:31:33;96198.19;;;-4.86;100.00
20077;BME280;12348;42.710;23.378;2024-01-10T03:34:01;96189.97;;;-4.83;100.00
20077;BME280;12348;42.710;23.378;2024-01-10T03:36:27;96193.59;;;-4.84;100.00
20077;BME280;12348;42.710;23.378;2024-01-10T03:38:54;96201.47;;;-4.84;100.00
20077;BME280;12348;42.710;23.378;2024-01-10T03:41:21;96197.38;;;-4.87;100.00
20077;BME280;12348;42.710;23.378;2024-01-10T03:43:48;96191.28;;;-4.79;100.00
20077;BME280;12348;42.710;23.378;2024-01-10T03:46:15;96196.03;;;-4.74;100.00
20077;BME280;12348;42.710;23.378;2024-01-10T03:48:43;96184.41;;;-4.80;100.00
20077;BME280;12348;42.710;23.378;2024-01-10T03:51:16;96188.69;;;-4.87;100.00
20077;BME280;12348;42.710;23.378;2024-01-10T03:53:42;96200.69;;;-4.93;100.00
20077;BME280;12348;42.710;23.378;2024-01-10T03:56:09;96200.19;;;-4.96;100.00
20077;BME280;12348;42.710;23.378;2024-01-10T03:58:36;96199.34;;;-4.97;100.00
20077;BME280;12348;42.710;23.378;2024-01-10T04:01:04;96197.91;;;-4.99;100.00
20077;BME280;12348;42.710;23.378;2024-01-10T04:03:31;96201.84;;;-5.03;100.00
20077;BME280;12348;42.710;23.378;2024-01-10T04:05:58;96201.53;;;-5.00;100.00
20077;BME280;12348;42.710;23.378;2024-01-10T04:08:26;96202.47;;;-5.01;100.00
20077;BME280;12348;42.710;23.378;2024-01-10T04:10:53;96205.59;;;-5.06;100.00
20077;BME280;12348;42.710;23.378;2024-01-10T04:13:20;96205.63;;;-5.14;100.00
20077;BME280;12348;42.710;23.378;2024-01-10T04:15:47;96210.53;;;-5.27;100.00
20077;BME280;12348;42.710;23.378;2024-01-10T04:18:14;96216.28;;;-5.32;100.00
20077;BME280;12348;42.710;23.378;2024-01-10T04:20:41;96222.19;;;-5.30;100.00
20077;BME280;12348;42.710;23.378;2024-01-10T04:23:08;96222.66;;;-5.34;100.00
20077;BME280;12348;42.710;23.378;2024-01-10T04:25:36;96223.16;;;-5.31;100.00
20077;BME280;12348;42.710;23.378;2024-01-10T04:28:03;96215.97;;;-5.29;100.00
20077;BME280;12348;42.710;23.378;2024-01-10T04:30:30;96218.44;;;-5.11;100.00
20077;BME280;12348;42.710;23.378;2024-01-10T04:32:56;96219.56;;;-5.14;100.00
20077;BME280;12348;42.710;23.378;2024-01-10T04:35:23;96224.81;;;-5.14;100.00
20077;BME280;12348;42.710;23.378;2024-01-10T04:37:50;96228.44;;;-5.15;100.00
20077;BME280;12348;42.710;23.378;2024-01-10T04:40:16;96232.69;;;-5.05;100.00
20077;BME280;12348;42.710;23.378;2024-01-10T04:42:45;96232.53;;;-5.04;100.00
20077;BME280;12348;42.710;23.378;2024-01-10T04:45:12;96232.84;;;-4.99;100.00
20077;BME280;12348;42.710;23.378;2024-01-10T04:47:38;96236.63;;;-5.01;100.00
20077;BME280;12348;42.710;23.378;2024-01-10T04:50:06;96236.97;;;-4.96;100.00
20077;BME280;12348;42.710;23.378;2024-01-10T04:52:33;96239.59;;;-4.96;100.00
20077;BME280;12348;42.710;23.378;2024-01-10T04:55:00;96250.41;;;-4.91;100.00
20077;BME280;12348;42.710;23.378;2024-01-10T04:57:27;96248.25;;;-4.79;100.00
20077;BME280;12348;42.710;23.378;2024-01-10T04:59:56;96243.13;;;-4.56;100.00
20077;BME280;12348;42.710;23.378;2024-01-10T05:02:24;96244.13;;;-4.66;100.00
20077;BME280;12348;42.710;23.378;2024-01-10T05:04:51;96245.59;;;-4.71;100.00
20077;BME280;12348;42.710;23.378;2024-01-10T05:07:17;96247.59;;;-4.73;100.00
20077;BME280;12348;42.710;23.378;2024-01-10T05:09:44;96244.50;;;-4.85;100.00
20077;BME280;12348;42.710;23.378;2024-01-10T05:12:11;96243.66;;;-4.85;100.00
20077;BME280;12348;42.710;23.378;2024-01-10T05:14:38;96251.38;;;-4.84;100.00
20077;BME280;12348;42.710;23.378;2024-01-10T05:17:06;96250.72;;;-4.86;100.00
20077;BME280;12348;42.710;23.378;2024-01-10T05:19:33;96245.78;;;-4.97;100.00
20077;BME280;12348;42.710;23.378;2024-01-10T05:22:00;96256.31;;;-5.05;100.00
20077;BME280;12348;42.710;23.378;2024-01-10T05:24:27;96260.75;;;-5.14;100.00
20077;BME280;12348;42.710;23.378;2024-01-10T05:26:53;96265.31;;;-5.16;100.00
20077;BME280;12348;42.710;23.378;2024-01-10T05:29:20;96259.94;;;-5.15;100.00
20077;BME280;12348;42.710;23.378;2024-01-10T05:31:49;96261.56;;;-5.14;100.00
20077;BME280;12348;42.710;23.378;2024-01-10T05:34:17;96267.31;;;-5.10;100.00
20077;BME280;12348;42.710;23.378;2024-01-10T05:36:44;96269.63;;;-5.15;100.00
20077;BME280;12348;42.710;23.378;2024-01-10T05:39:10;96269.63;;;-5.15;100.00
20077;BME280;12348;42.710;23.378;2024-01-10T05:41:41;96270.91;;;-5.19;100.00
20077;BME280;12348;42.710;23.378;2024-01-10T05:44:09;96266.50;;;-5.19;100.00
20077;BME280;12348;42.710;23.378;2024-01-10T05:46:35;96272.56;;;-5.26;100.00
20077;BME280;12348;42.710;23.378;2024-01-10T05:49:02;96266.81;;;-5.30;100.00
20077;BME280;12348;42.710;23.378;2024-01-10T05:51:32;96261.38;;;-5.28;100.00
20077;BME280;12348;42.710;23.378;2024-01-10T05:53:58;96272.22;;;-5.31;100.00
20077;BME280;12348;42.710;23.378;2024-01-10T05:56:25;96269.41;;;-5.46;100.00
20077;BME280;12348;42.710;23.378;2024-01-10T05:58:52;96276.81;;;-5.33;100.00
20077;BME280;12348;42.710;23.378;2024-01-10T06:01:19;96280.91;;;-5.31;100.00
20077;BME280;12348;42.710;23.378;2024-01-10T06:03:46;96282.88;;;-5.33;100.00
20077;BME280;12348;42.710;23.378;2024-01-10T06:06:13;96279.25;;;-5.32;100.00
20077;BME280;12348;42.710;23.378;2024-01-10T06:08:41;96282.88;;;-5.33;100.00
20077;BME280;12348;42.710;23.378;2024-01-10T06:11:08;96289.75;;;-5.32;100.00
20077;BME280;12348;42.710;23.378;2024-01-10T06:13:35;96285.81;;;-5.28;100.00
20077;BME280;12348;42.710;23.378;2024-01-10T06:16:02;96302.91;;;-5.24;100.00
20077;BME280;12348;42.710;23.378;2024-01-10T06:18:29;96307.50;;;-5.18;100.00
20077;BME280;12348;42.710;23.378;2024-01-10T06:20:56;96306.88;;;-5.12;100.00
20077;BME280;12348;42.710;23.378;2024-01-10T06:23:22;96300.94;;;-5.05;100.00
20077;BME280;12348;42.710;23.378;2024-01-10T06:25:50;96307.19;;;-4.98;100.00
20077;BME280;12348;42.710;23.378;2024-01-10T06:28:20;96306.53;;;-4.92;100.00
20077;BME280;12348;42.710;23.378;2024-01-10T06:30:46;96306.88;;;-4.87;100.00
20077;BME280;12348;42.710;23.378;2024-01-10T06:33:13;96314.72;;;-4.79;100.00
20077;BME280;12348;42.710;23.378;2024-01-10T06:35:40;96310.81;;;-4.67;100.00
20077;BME280;12348;42.710;23.378;2024-01-10T06:38:09;96315.06;;;-4.66;100.00
20077;BME280;12348;42.710;23.378;2024-01-10T06:40:35;96315.41;;;-4.77;100.00
20077;BME280;12348;42.710;23.378;2024-01-10T06:43:04;96320.97;;;-4.80;100.00
20077;BME280;12348;42.710;23.378;2024-01-10T06:45:33;96324.91;;;-4.76;100.00
20077;BME280;12348;42.710;23.378;2024-01-10T06:48:00;96326.41;;;-4.81;100.00
20077;BME280;12348;42.710;23.378;2024-01-10T06:50:27;96325.09;;;-4.77;100.00
20077;BME280;12348;42.710;23.378;2024-01-10T06:52:53;96332.31;;;-4.79;100.00
20077;BME280;12348;42.710;23.378;2024-01-10T06:55:20;96338.06;;;-4.76;100.00
20077;BME280;12348;42.710;23.378;2024-01-10T06:57:49;96344.13;;;-4.75;100.00
20077;BME280;12348;42.710;23.378;2024-01-10T07:00:20;96339.03;;;-4.36;100.00
20077;BME280;12348;42.710;23.378;2024-01-10T07:02:47;96338.97;;;-4.20;100.00
20077;BME280;12348;42.710;23.378;2024-01-10T07:05:14;96329.63;;;-4.22;100.00
20077;BME280;12348;42.710;23.378;2024-01-10T07:07:41;96333.72;;;-4.20;100.00
20077;BME280;12348;42.710;23.378;2024-01-10T07:10:09;96336.66;;;-4.15;100.00
20077;BME280;12348;42.710;23.378;2024-01-10T07:12:36;96341.22;;;-3.92;100.00
20077;BME280;12348;42.710;23.378;2024-01-10T07:15:03;96337.44;;;-3.98;100.00
20077;BME280;12348;42.710;23.378;2024-01-10T07:17:32;96335.34;;;-3.63;100.00
20077;BME280;12348;42.710;23.378;2024-01-10T07:19:58;96338.66;;;-3.30;91.21
20077;BME280;12348;42.710;23.378;2024-01-10T07:22:25;96344.16;;;-3.48;88.95
20077;BME280;12348;42.710;23.378;2024-01-10T07:24:52;96343.63;;;-3.35;91.85
20077;BME280;12348;42.710;23.378;2024-01-10T07:27:19;96337.16;;;-3.01;87.81
20077;BME280;12348;42.710;23.378;2024-01-10T07:29:45;96347.94;;;-2.42;87.90
20077;BME280;12348;42.710;23.378;2024-01-10T07:32:12;96344.28;;;-1.88;80.67
20077;BME280;12348;42.710;23.378;2024-01-10T07:34:40;96348.00;;;-2.12;78.01
20077;BME280;12348;42.710;23.378;2024-01-10T07:37:07;96355.25;;;-2.14;74.93
20077;BME280;12348;42.710;23.378;2024-01-10T07:39:36;96361.38;;;-2.37;72.40
20077;BME280;12348;42.710;23.378;2024-01-10T07:42:03;96362.94;;;-2.65;71.78
20077;BME280;12348;42.710;23.378;2024-01-10T07:44:30;96360.34;;;-2.28;74.20
20077;BME280;12348;42.710;23.378;2024-01-10T07:46:57;96365.59;;;-1.75;74.84
20077;BME280;12348;42.710;23.378;2024-01-10T07:49:23;96354.91;;;-1.52;73.01
20077;BME280;12348;42.710;23.378;2024-01-10T07:51:53;96362.69;;;-1.14;73.28
20077;BME280;12348;42.710;23.378;2024-01-10T07:54:19;96355.56;;;-0.99;68.38
20077;BME280;12348;42.710;23.378;2024-01-10T07:56:46;96365.25;;;-1.21;65.96
20077;BME280;12348;42.710;23.378;2024-01-10T07:59:13;96359.69;;;-1.11;65.96
20077;BME280;12348;42.710;23.378;2024-01-10T08:01:44;96369.06;;;-1.24;60.77
20077;BME280;12348;42.710;23.378;2024-01-10T08:04:20;96356.88;;;-1.25;61.99
20077;BME280;12348;42.710;23.378;2024-01-10T08:06:48;96359.59;;;-0.39;60.82
20077;BME280;12348;42.710;23.378;2024-01-10T08:09:18;96353.97;;;1.16;65.88
20077;BME280;12348;42.710;23.378;2024-01-10T08:11:45;96344.72;;;2.78;66.67
20077;BME280;12348;42.710;23.378;2024-01-10T08:14:12;96355.72;;;3.97;57.71
20077;BME280;12348;42.710;23.378;2024-01-10T08:16:39;96345.56;;;5.04;53.12
20077;BME280;12348;42.710;23.378;2024-01-10T08:19:06;96346.09;;;5.73;53.32
20077;BME280;12348;42.710;23.378;2024-01-10T08:21:32;96345.31;;;5.42;47.53
20077;BME280;12348;42.710;23.378;2024-01-10T08:24:01;96354.88;;;4.65;46.70
20077;BME280;12348;42.710;23.378;2024-01-10T08:26:30;96352.31;;;5.06;47.71
20077;BME280;12348;42.710;23.378;2024-01-10T08:28:57;96349.00;;;4.37;46.74
20077;BME280;12348;42.710;23.378;2024-01-10T08:31:24;96349.66;;;4.51;46.48
20077;BME280;12348;42.710;23.378;2024-01-10T08:33:52;96352.47;;;6.02;46.94
20077;BME280;12348;42.710;23.378;2024-01-10T08:36:19;96359.31;;;4.71;45.88
20077;BME280;12348;42.710;23.378;2024-01-10T08:38:46;96350.84;;;6.71;45.62
20077;BME280;12348;42.710;23.378;2024-01-10T08:41:14;96355.09;;;7.08;44.54
20077;BME280;12348;42.710;23.378;2024-01-10T08:43:42;96359.63;;;7.07;41.63
20077;BME280;12348;42.710;23.378;2024-01-10T08:46:09;96351.38;;;6.97;42.90
20077;BME280;12348;42.710;23.378;2024-01-10T08:48:36;96352.81;;;6.76;42.12
20077;BME280;12348;42.710;23.378;2024-01-10T08:51:03;96351.88;;;6.82;43.49
20077;BME280;12348;42.710;23.378;2024-01-10T08:53:30;96352.72;;;6.47;40.94
20077;BME280;12348;42.710;23.378;2024-01-10T08:55:57;96349.72;;;7.08;41.87
20077;BME280;12348;42.710;23.378;2024-01-10T08:58:25;96352.47;;;6.49;41.40
20077;BME280;12348;42.710;23.378;2024-01-10T09:00:53;96345.16;;;6.56;44.72
20077;BME280;12348;42.710;23.378;2024-01-10T09:03:20;96351.81;;;5.88;41.48
20077;BME280;12348;42.710;23.378;2024-01-10T09:05:48;96346.91;;;5.73;41.09
20077;BME280;12348;42.710;23.378;2024-01-10T09:08:15;96349.09;;;5.34;43.41
20077;BME280;12348;42.710;23.378;2024-01-10T09:10:42;96342.06;;;7.28;40.85
20077;BME280;12348;42.710;23.378;2024-01-10T09:13:09;96338.25;;;7.98;42.44
20077;BME280;12348;42.710;23.378;2024-01-10T09:15:35;96340.38;;;8.63;38.49
20077;BME280;12348;42.710;23.378;2024-01-10T09:18:04;96336.97;;;9.34;38.45
20077;BME280;12348;42.710;23.378;2024-01-10T09:20:31;96335.19;;;9.44;38.11
20077;BME280;12348;42.710;23.378;2024-01-10T09:22:58;96331.66;;;9.17;36.71
20077;BME280;12348;42.710;23.378;2024-01-10T09:25:25;96334.41;;;8.78;38.07
20077;BME280;12348;42.710;23.378;2024-01-10T09:27:52;96327.72;;;9.03;36.38
20077;BME280;12348;42.710;23.378;2024-01-10T09:30:19;96331.94;;;9.96;36.60
20077;BME280;12348;42.710;23.378;2024-01-10T09:32:46;96325.38;;;10.94;35.68
20077;BME280;12348;42.710;23.378;2024-01-10T09:35:14;96321.41;;;11.02;34.76
20077;BME280;12348;42.710;23.378;2024-01-10T09:37:41;96326.97;;;8.85;36.79
20077;BME280;12348;42.710;23.378;2024-01-10T09:40:09;96319.13;;;9.50;37.41
20077;BME280;12348;42.710;23.378;2024-01-10T09:42:38;96321.19;;;9.96;37.33
20077;BME280;12348;42.710;23.378;2024-01-10T09:45:06;96325.06;;;9.52;34.41
20077;BME280;12348;42.710;23.378;2024-01-10T09:47:35;96319.47;;;8.32;36.93
20077;BME280;12348;42.710;23.378;2024-01-10T09:50:03;96326.06;;;6.52;37.42
20077;BME280;12348;42.710;23.378;2024-01-10T09:52:40;96330.72;;;6.22;39.97
20077;BME280;12348;42.710;23.378;2024-01-10T09:55:08;96321.66;;;6.23;38.90
20077;BME280;12348;42.710;23.378;2024-01-10T09:57:35;96317.56;;;7.48;39.38
20077;BME280;12348;42.710;23.378;2024-01-10T10:00:04;96307.69;;;8.16;37.80
20077;BME280;12348;42.710;23.378;2024-01-10T10:02:37;96306.03;;;9.09;37.51
20077;BME280;12348;42.710;23.378;2024-01-10T10:05:09;96303.44;;;8.70;37.33
20077;BME280;12348;42.710;23.378;2024-01-10T10:07:49;96306.09;;;7.52;37.98
20077;BME280;12348;42.710;23.378;2024-01-10T10:10:17;96305.38;;;8.58;36.35
20077;BME280;12348;42.710;23.378;2024-01-10T10:12:45;96296.84;;;7.43;38.04
20077;BME280;12348;42.710;23.378;2024-01-10T10:15:14;96295.41;;;4.94;39.96
20077;BME280;12348;42.710;23.378;2024-01-10T10:17:43;96301.50;;;4.83;40.66
20077;BME280;12348;42.710;23.378;2024-01-10T10:20:20;96289.97;;;5.73;41.71
20077;BME280;12348;42.710;23.378;2024-01-10T10:23:03;96278.56;;;7.57;39.20
20077;BME280;12348;42.710;23.378;2024-01-10T10:25:32;96277.22;;;8.22;39.46
20077;BME280;12348;42.710;23.378;2024-01-10T10:27:59;96273.22;;;9.29;37.95
20077;BME280;12348;42.710;23.378;2024-01-10T10:30:27;96267.34;;;9.32;37.18
20077;BME280;12348;42.710;23.378;2024-01-10T10:32:54;96268.06;;;9.50;36.47
20077;BME280;12348;42.710;23.378;2024-01-10T10:35:21;96253.19;;;9.42;37.31
20077;BME280;12348;42.710;23.378;2024-01-10T10:37:48;96257.50;;;9.16;36.76
20077;BME280;12348;42.710;23.378;2024-01-10T10:40:16;96252.44;;;9.46;36.74
20077;BME280;12348;42.710;23.378;2024-01-10T10:42:45;96250.13;;;9.06;37.54
20077;BME280;12348;42.710;23.378;2024-01-10T10:45:14;96251.38;;;8.98;37.84
20077;BME280;12348;42.710;23.378;2024-01-10T10:47:43;96245.16;;;8.71;37.25
20077;BME280;12348;42.710;23.378;2024-01-10T10:50:12;96240.47;;;8.83;37.78
20077;BME280;12348;42.710;23.378;2024-01-10T10:52:42;96237.91;;;8.93;38.96
20077;BME280;12348;42.710;23.378;2024-01-10T10:55:14;96235.78;;;8.52;37.84
20077;BME280;12348;42.710;23.378;2024-01-10T10:57:44;96231.09;;;8.64;41.05
20077;BME280;12348;42.710;23.378;2024-01-10T11:00:12;96223.34;;;8.45;38.65
20077;BME280;12348;42.710;23.378;2024-01-10T11:02:41;96223.91;;;8.09;38.89
20077;BME280;12348;42.710;23.378;2024-01-10T11:05:09;96213.19;;;8.31;40.02
20077;BME280;12348;42.710;23.378;2024-01-10T11:07:35;96214.00;;;8.48;38.56
20077;BME280;12348;42.710;23.378;2024-01-10T11:10:05;96214.06;;;8.14;38.56
20077;BME280;12348;42.710;23.378;2024-01-10T11:12:55;96203.72;;;8.23;39.30
20077;BME280;12348;42.710;23.378;2024-01-10T11:15:44;96210.44;;;7.87;40.21
20077;BME280;12348;42.710;23.378;2024-01-10T11:18:28;96205.31;;;7.18;41.94
20077;BME280;12348;42.710;23.378;2024-01-10T11:21:09;96199.97;;;7.51;42.50
20077;BME280;12348;42.710;23.378;2024-01-10T11:23:42;96204.94;;;5.93;43.20
20077;BME280;12348;42.710;23.378;2024-01-10T11:26:11;96197.00;;;5.75;43.08
20077;BME280;12348;42.710;23.378;2024-01-10T11:28:41;96195.06;;;6.17;42.78
20077;BME280;12348;42.710;23.378;2024-01-10T11:31:08;96190.94;;;6.38;43.84
20077;BME280;12348;42.710;23.378;2024-01-10T11:33:37;96183.81;;;6.84;43.65
20077;BME280;12348;42.710;23.378;2024-01-10T11:36:16;96181.31;;;6.25;44.56
20077;BME280;12348;42.710;23.378;2024-01-10T11:38:48;96178.88;;;6.64;45.53
20077;BME280;12348;42.710;23.378;2024-01-10T11:41:21;96178.78;;;6.59;43.90
20077;BME280;12348;42.710;23.378;2024-01-10T11:44:26;96172.97;;;5.87;45.61
20077;BME280;12348;42.710;23.378;2024-01-10T11:46:54;96169.97;;;4.34;47.29
20077;BME280;12348;42.710;23.378;2024-01-10T11:49:22;96174.28;;;4.35;49.71
20077;BME280;12348;42.710;23.378;2024-01-10T11:51:50;96163.94;;;4.87;49.06
20077;BME280;12348;42.710;23.378;2024-01-10T11:54:38;96152.88;;;5.72;48.07
20077;BME280;12348;42.710;23.378;2024-01-10T11:57:12;96154.53;;;6.37;47.27
20077;BME280;12348;42.710;23.378;2024-01-10T11:59:42;96150.31;;;5.77;47.66
20077;BME280;12348;42.710;23.378;2024-01-10T12:02:10;96154.16;;;4.81;47.82
20077;BME280;12348;42.710;23.378;2024-01-10T12:04:38;96150.44;;;4.52;47.98
20077;BME280;12348;42.710;23.378;2024-01-10T12:07:05;96148.56;;;3.92;49.46
20077;BME280;12348;42.710;23.378;2024-01-10T12:09:33;96140.53;;;3.55;50.23
20077;BME280;12348;42.710;23.378;2024-01-10T12:12:03;96148.63;;;3.42;51.22
20077;BME280;12348;42.710;23.378;2024-01-10T12:14:30;96138.78;;;3.43;50.62
20077;BME280;12348;42.710;23.378;2024-01-10T12:16:59;96151.16;;;2.49;52.76
20077;BME280;12348;42.710;23.378;2024-01-10T12:19:27;96142.81;;;2.77;52.57
20077;BME280;12348;42.710;23.378;2024-01-10T12:21:53;96144.91;;;2.36;52.55
20077;BME280;12348;42.710;23.378;2024-01-10T12:24:21;96137.66;;;2.82;52.14
20077;BME280;12348;42.710;23.378;2024-01-10T12:26:49;96135.34;;;2.92;51.94
20077;BME280;12348;42.710;23.378;2024-01-10T12:29:17;96139.13;;;2.78;53.07
20077;BME280;12348;42.710;23.378;2024-01-10T12:31:45;96136.69;;;3.01;53.18
20077;BME280;12348;42.710;23.378;2024-01-10T12:34:16;96135.47;;;3.29;52.68
20077;BME280;12348;42.710;23.378;2024-01-10T12:36:43;96129.16;;;3.85;52.92
20077;BME280;12348;42.710;23.378;2024-01-10T12:39:11;96129.13;;;3.48;51.90
20077;BME280;12348;42.710;23.378;2024-01-10T12:41:40;96130.03;;;3.97;52.15
20077;BME280;12348;42.710;23.378;2024-01-10T12:44:07;96132.09;;;3.95;51.08
20077;BME280;12348;42.710;23.378;2024-01-10T12:46:33;96136.41;;;3.09;52.48
20077;BME280;12348;42.710;23.378;2024-01-10T12:49:01;96134.03;;;3.01;52.96
20077;BME280;12348;42.710;23.378;2024-01-10T12:51:32;96138.00;;;2.92;54.35